createdAt,value
2022-12-03T00:01:01.126Z,9.98
2022-12-03T00:03:28.085Z,9.07
2022-12-03T00:05:54.599Z,9.55
2022-12-03T00:08:21.060Z,9.93
2022-12-03T00:10:47.523Z,9.65
2022-12-03T00:13:13.973Z,9.75
2022-12-03T00:15:40.649Z,10.73
2022-12-03T00:18:07.150Z,10.57
2022-12-03T00:20:33.604Z,9.68
2022-12-03T00:23:00.077Z,11.48
2022-12-03T00:25:26.570Z,11.13
2022-12-03T00:27:53.103Z,11.27
2022-12-03T00:30:19.602Z,10.45
2022-12-03T00:32:46.021Z,11.27
2022-12-03T00:35:12.544Z,10.32
2022-12-03T00:37:39.042Z,8.48
2022-12-03T00:40:05.859Z,7.85
2022-12-03T00:42:32.362Z,8.07
2022-12-03T00:44:58.838Z,7.78
2022-12-03T00:47:25.371Z,7.95
2022-12-03T00:49:51.780Z,9.00
2022-12-03T00:52:18.335Z,8.40
2022-12-03T00:54:45.389Z,9.27
2022-12-03T00:57:11.822Z,7.55
2022-12-03T00:59:38.443Z,8.52
2022-12-03T01:02:04.980Z,7.88
2022-12-03T01:04:32.771Z,7.90
2022-12-03T01:06:59.785Z,8.02
2022-12-03T01:09:26.502Z,8.07
2022-12-03T01:11:52.982Z,6.82
2022-12-03T01:14:19.986Z,7.95
2022-12-03T01:16:46.776Z,7.60
2022-12-03T01:19:16.412Z,7.22
2022-12-03T01:21:43.848Z,6.50
2022-12-03T01:24:12.238Z,6.63
2022-12-03T01:26:39.904Z,6.95
2022-12-03T01:29:07.602Z,7.43
2022-12-03T01:31:54.989Z,6.53
2022-12-03T01:34:22.853Z,7.95
2022-12-03T01:36:52.593Z,7.35
2022-12-03T01:39:20.261Z,8.18
2022-12-03T01:41:48.961Z,8.18
2022-12-03T01:44:36.687Z,7.95
2022-12-03T01:47:05.156Z,8.77
2022-12-03T01:49:52.897Z,7.80
2022-12-03T01:52:21.183Z,8.52
2022-12-03T01:54:49.404Z,8.32
2022-12-03T01:57:27.688Z,8.52
2022-12-03T01:59:55.514Z,7.47
2022-12-03T02:02:27.167Z,8.18
2022-12-03T02:04:54.414Z,8.30
2022-12-03T02:07:21.177Z,8.50
2022-12-03T02:09:47.895Z,8.13
2022-12-03T02:12:16.059Z,8.45
2022-12-03T02:14:42.708Z,8.70
2022-12-03T02:17:09.355Z,8.52
2022-12-03T02:19:35.913Z,8.80
2022-12-03T02:22:08.084Z,9.15
2022-12-03T02:24:41.991Z,8.00
2022-12-03T02:27:08.385Z,7.75
2022-12-03T02:29:34.931Z,7.68
2022-12-03T02:32:02.570Z,8.23
2022-12-03T02:34:36.245Z,9.35
2022-12-03T02:37:04.613Z,8.23
2022-12-03T02:39:33.817Z,7.45
2022-12-03T02:42:20.466Z,8.57
2022-12-03T02:44:48.279Z,8.43
2022-12-03T02:47:15.966Z,8.00
2022-12-03T02:49:43.914Z,8.73
2022-12-03T02:52:13.877Z,9.02
2022-12-03T02:54:44.191Z,8.45
2022-12-03T02:57:12.829Z,8.27
2022-12-03T02:59:40.623Z,7.45
2022-12-03T03:02:14.024Z,8.18
2022-12-03T03:04:42.555Z,7.68
2022-12-03T03:07:09.906Z,7.78
2022-12-03T03:09:36.512Z,7.18
2022-12-03T03:12:02.980Z,7.18
2022-12-03T03:14:31.852Z,7.20
2022-12-03T03:16:58.393Z,7.53
2022-12-03T03:19:25.578Z,6.90
2022-12-03T03:21:54.084Z,6.97
2022-12-03T03:24:22.200Z,6.45
2022-12-03T03:26:50.345Z,6.18
2022-12-03T03:29:18.756Z,7.28
2022-12-03T03:31:47.504Z,6.55
2022-12-03T03:34:15.718Z,7.03
2022-12-03T03:36:44.248Z,6.43
2022-12-03T03:39:12.364Z,6.55
2022-12-03T03:41:40.921Z,6.53
2022-12-03T03:44:07.613Z,6.90
2022-12-03T03:46:37.050Z,7.43
2022-12-03T03:49:04.447Z,6.45
2022-12-03T03:51:32.662Z,6.68
2022-12-03T03:54:01.751Z,6.35
2022-12-03T03:56:29.726Z,6.50
2022-12-03T03:58:57.483Z,6.60
2022-12-03T04:01:24.209Z,6.45
2022-12-03T04:03:52.570Z,6.88
2022-12-03T04:06:19.365Z,6.57
2022-12-03T04:08:45.853Z,6.18
2022-12-03T04:11:34.420Z,6.88
2022-12-03T04:14:02.501Z,6.13
2022-12-03T04:16:30.363Z,6.40
2022-12-03T04:18:58.179Z,5.40
2022-12-03T04:21:44.397Z,5.75
2022-12-03T04:24:12.130Z,6.60
2022-12-03T04:26:58.293Z,5.90
2022-12-03T04:29:26.330Z,6.32
2022-12-03T04:32:28.788Z,5.95
2022-12-03T04:35:13.835Z,6.70
2022-12-03T04:37:41.658Z,6.28
2022-12-03T04:40:29.275Z,6.80
2022-12-03T04:42:55.722Z,6.68
2022-12-03T04:45:23.349Z,6.22
2022-12-03T04:47:50.830Z,6.07
2022-12-03T04:50:18.649Z,6.85
2022-12-03T04:52:46.439Z,6.05
2022-12-03T04:55:14.302Z,6.30
2022-12-03T04:57:42.413Z,6.68
2022-12-03T05:00:10.704Z,6.65
2022-12-03T05:02:40.664Z,6.90
2022-12-03T05:05:08.564Z,6.93
2022-12-03T05:07:35.039Z,6.43
2022-12-03T05:10:05.368Z,6.25
2022-12-03T05:12:33.114Z,7.00
2022-12-03T05:15:00.996Z,7.47
2022-12-03T05:17:28.571Z,7.32
2022-12-03T05:20:15.016Z,8.10
2022-12-03T05:22:42.696Z,6.75
2022-12-03T05:25:10.432Z,7.88
2022-12-03T05:27:38.144Z,6.63
2022-12-03T05:30:06.077Z,7.35
2022-12-03T05:32:33.875Z,6.63
2022-12-03T05:35:01.490Z,6.85
2022-12-03T05:37:29.378Z,6.78
2022-12-03T05:39:57.177Z,7.45
2022-12-03T05:42:43.212Z,8.30
2022-12-03T05:45:11.017Z,7.53
2022-12-03T05:47:38.605Z,7.03
2022-12-03T05:50:06.544Z,7.88
2022-12-03T05:52:32.953Z,8.02
2022-12-03T05:54:59.462Z,8.77
2022-12-03T05:57:25.880Z,8.77
2022-12-03T05:59:52.261Z,8.25
2022-12-03T06:02:18.764Z,8.45
2022-12-03T06:04:45.308Z,7.80
2022-12-03T06:07:14.318Z,8.45
2022-12-03T06:09:41.950Z,9.70
2022-12-03T06:12:11.305Z,8.98
2022-12-03T06:14:37.699Z,8.52
2022-12-03T06:17:05.036Z,8.65
2022-12-03T06:19:31.495Z,9.18
2022-12-03T06:21:57.921Z,9.07
2022-12-03T06:24:24.393Z,9.50
2022-12-03T06:26:50.821Z,8.45
2022-12-03T06:29:17.290Z,9.02
2022-12-03T06:31:43.771Z,8.38
2022-12-03T06:34:10.287Z,8.18
2022-12-03T06:36:36.786Z,7.90
2022-12-03T06:39:03.322Z,8.05
2022-12-03T06:41:29.750Z,8.73
2022-12-03T06:43:56.228Z,8.65
2022-12-03T06:46:22.892Z,7.97
2022-12-03T06:48:49.352Z,8.45
2022-12-03T06:51:15.746Z,9.63
2022-12-03T06:53:42.153Z,9.68
2022-12-03T06:56:08.580Z,9.15
2022-12-03T06:58:35.062Z,8.57
2022-12-03T07:01:01.609Z,9.57
2022-12-03T07:03:28.070Z,9.32
2022-12-03T07:05:54.515Z,9.80
2022-12-03T07:08:20.982Z,10.75
2022-12-03T07:10:47.497Z,10.32
2022-12-03T07:13:13.981Z,10.15
2022-12-03T07:15:41.731Z,10.30
2022-12-03T07:18:08.193Z,10.93
2022-12-03T07:20:34.576Z,57.05
2022-12-03T07:23:01.148Z,15.18
2022-12-03T07:25:27.590Z,15.40
2022-12-03T07:27:53.988Z,11.27
2022-12-03T07:30:20.865Z,13.27
2022-12-03T07:32:47.470Z,13.68
2022-12-03T07:35:13.878Z,11.90
2022-12-03T07:37:40.297Z,11.85
2022-12-03T07:40:07.299Z,12.05
2022-12-03T07:42:33.775Z,11.48
2022-12-03T07:45:00.215Z,10.48
2022-12-03T07:47:26.725Z,10.52
2022-12-03T07:49:53.157Z,11.70
2022-12-03T07:52:19.543Z,12.32
2022-12-03T07:54:45.960Z,12.25
2022-12-03T07:57:12.421Z,14.00
2022-12-03T07:59:38.890Z,12.55
2022-12-03T08:02:05.375Z,12.07
2022-12-03T08:04:31.970Z,12.57
2022-12-03T08:06:59.504Z,13.45
2022-12-03T08:09:26.631Z,12.60
2022-12-03T14:38:50.255Z,17.45
2022-12-03T14:41:35.380Z,19.50
2022-12-03T14:44:01.839Z,385.08
2022-12-03T14:46:28.576Z,85.75
2022-12-03T14:48:55.170Z,21.15
2022-12-03T14:51:21.679Z,167.77
2022-12-03T14:53:48.163Z,24.63
2022-12-03T14:56:14.575Z,98.03
2022-12-03T14:58:41.085Z,59.38
2022-12-03T15:01:07.690Z,97.05
2022-12-03T15:03:34.215Z,94.47
2022-12-03T15:06:00.743Z,60.20
2022-12-03T15:08:30.103Z,37.28
2022-12-03T15:10:56.570Z,18.60
2022-12-03T15:13:23.176Z,52.00
2022-12-03T15:15:49.595Z,41.85
2022-12-03T15:18:16.002Z,71.28
2022-12-03T15:20:42.463Z,94.00
2022-12-03T15:23:14.080Z,183.88
2022-12-03T15:25:41.126Z,75.88
2022-12-03T15:28:07.548Z,59.25
2022-12-03T15:30:37.026Z,42.72
2022-12-03T15:33:03.661Z,44.58
2022-12-03T15:35:30.635Z,243.15
2022-12-03T15:37:57.130Z,130.98
2022-12-03T15:40:24.386Z,95.20
2022-12-03T15:42:50.903Z,38.58
2022-12-03T15:45:17.523Z,30.75
2022-12-03T15:47:44.040Z,26.95
2022-12-03T15:50:10.716Z,26.50
2022-12-03T15:52:37.178Z,27.50
2022-12-03T15:55:04.106Z,25.38
2022-12-03T15:57:31.216Z,26.45
2022-12-03T15:59:57.716Z,24.60
2022-12-03T16:02:24.281Z,20.88
2022-12-03T16:04:50.735Z,18.90
2022-12-03T16:07:17.189Z,20.67
2022-12-03T16:09:43.717Z,18.60
2022-12-03T16:12:10.153Z,24.63
2022-12-03T16:14:36.602Z,23.35
2022-12-03T16:17:03.225Z,20.70
2022-12-03T16:19:29.669Z,17.25
2022-12-03T16:21:56.133Z,17.75
2022-12-03T16:24:22.738Z,24.02
2022-12-03T16:26:49.159Z,18.58
2022-12-03T16:29:15.628Z,19.55
2022-12-03T16:31:42.160Z,22.55
2022-12-03T16:34:08.643Z,24.48
2022-12-03T16:36:35.032Z,134.32
2022-12-03T16:39:01.576Z,319.90
2022-12-03T16:41:28.049Z,329.88
2022-12-03T16:43:54.658Z,136.00
2022-12-03T16:46:25.600Z,154.35
2022-12-03T16:48:53.058Z,109.40
2022-12-03T16:51:19.784Z,87.13
2022-12-03T16:53:46.276Z,93.28
2022-12-03T16:56:12.653Z,145.85
2022-12-03T16:58:39.138Z,62.13
2022-12-03T17:01:05.720Z,33.03
2022-12-03T17:03:33.967Z,25.80
2022-12-03T17:06:00.843Z,17.75
2022-12-03T17:08:27.486Z,17.17
2022-12-03T17:10:54.016Z,17.85
2022-12-03T17:13:20.863Z,19.45
2022-12-03T17:15:47.473Z,18.20
2022-12-03T17:18:13.956Z,17.65
2022-12-03T17:20:40.574Z,16.90
2022-12-03T17:23:07.436Z,18.92
2022-12-03T17:25:34.506Z,17.85
2022-12-03T17:28:01.591Z,16.08
2022-12-03T17:30:28.043Z,17.63
2022-12-03T17:32:54.521Z,17.33
2022-12-03T17:35:20.939Z,20.02
2022-12-03T17:37:47.335Z,19.55
2022-12-03T17:40:14.395Z,18.83
2022-12-03T17:42:40.914Z,17.67
2022-12-03T17:45:07.784Z,17.88
2022-12-03T17:47:34.239Z,15.05
2022-12-03T17:50:00.699Z,17.02
2022-12-03T17:52:27.147Z,17.55
2022-12-03T17:55:12.828Z,15.05
2022-12-03T17:57:40.118Z,16.73
2022-12-03T18:00:06.962Z,16.02
2022-12-03T18:02:33.437Z,14.98
2022-12-03T18:04:59.947Z,14.27
2022-12-03T18:07:26.423Z,14.30
2022-12-03T18:10:08.136Z,15.63
2022-12-03T18:12:34.577Z,17.00
2022-12-03T18:15:01.002Z,16.70
2022-12-03T18:17:27.471Z,15.65
2022-12-03T18:19:54.251Z,15.63
2022-12-03T18:22:21.013Z,15.60
2022-12-03T18:24:51.509Z,15.60
2022-12-03T18:27:19.750Z,12.00
2022-12-03T18:29:46.137Z,13.77
2022-12-03T18:32:27.566Z,16.75
2022-12-03T18:37:21.585Z,14.70
2022-12-03T18:39:48.084Z,15.55
2022-12-03T18:42:21.813Z,15.20
2022-12-03T18:44:49.930Z,14.98
2022-12-03T18:47:18.230Z,14.82
2022-12-03T18:49:44.753Z,13.00
2022-12-03T18:52:14.817Z,14.65
2022-12-03T18:54:41.356Z,13.15
2022-12-03T18:57:07.900Z,14.90
2022-12-03T18:59:34.417Z,13.32
2022-12-03T19:02:00.875Z,13.95
2022-12-03T19:04:27.501Z,14.27
2022-12-03T19:06:54.228Z,13.80
2022-12-03T19:09:20.747Z,13.45
2022-12-03T19:11:47.240Z,12.90
2022-12-03T19:14:13.662Z,13.85
2022-12-03T19:16:40.906Z,13.75
2022-12-03T19:19:08.250Z,13.60
2022-12-03T19:21:34.996Z,14.13
2022-12-03T19:24:23.804Z,15.43
2022-12-03T19:26:48.675Z,13.20
2022-12-03T19:29:15.449Z,14.35
2022-12-03T19:31:42.079Z,15.00
2022-12-03T19:34:08.594Z,14.45
2022-12-03T19:36:35.009Z,14.43
2022-12-03T19:39:01.826Z,12.43
2022-12-03T19:41:30.674Z,12.75
2022-12-03T19:43:57.754Z,15.43
2022-12-03T19:46:25.344Z,14.65
2022-12-03T19:48:51.887Z,15.05
2022-12-03T19:51:35.289Z,16.45
2022-12-03T19:54:06.323Z,13.95
2022-12-03T19:56:32.821Z,12.93
2022-12-03T19:58:59.310Z,13.50
2022-12-03T20:03:54.228Z,12.15
2022-12-03T20:06:25.352Z,12.98
2022-12-03T20:08:55.542Z,13.07
2022-12-03T20:11:23.352Z,12.85
2022-12-03T20:13:52.929Z,13.60
2022-12-03T20:16:19.417Z,12.85
2022-12-03T20:18:46.845Z,12.55
2022-12-03T20:21:13.917Z,13.15
2022-12-03T20:23:40.440Z,11.93
2022-12-03T20:26:07.905Z,10.82
2022-12-03T20:28:34.486Z,10.57
2022-12-03T20:31:02.194Z,10.50
2022-12-03T20:33:28.622Z,11.55
2022-12-03T20:35:55.622Z,10.95
2022-12-03T20:38:22.817Z,10.82
2022-12-03T20:40:49.683Z,10.98
2022-12-03T20:43:16.581Z,11.32
2022-12-03T20:45:43.354Z,11.60
2022-12-03T20:48:09.936Z,11.75
2022-12-03T20:50:39.513Z,11.35
2022-12-03T20:53:23.662Z,10.27
2022-12-03T20:55:58.100Z,10.02
2022-12-03T20:58:24.821Z,10.70
2022-12-03T21:00:51.345Z,12.70
2022-12-03T21:03:17.832Z,10.75
2022-12-03T21:05:44.341Z,11.00
2022-12-03T21:08:11.162Z,11.32
2022-12-03T21:10:44.986Z,11.68
2022-12-03T21:13:15.408Z,11.70
2022-12-03T21:15:42.385Z,12.57
2022-12-03T21:18:10.247Z,11.32
2022-12-03T21:20:40.285Z,10.50
2022-12-03T21:23:06.782Z,11.52
2022-12-03T21:25:34.074Z,10.73
2022-12-03T21:28:00.526Z,9.13
2022-12-03T21:30:27.051Z,9.57
2022-12-03T21:32:53.604Z,9.85
2022-12-03T21:35:20.017Z,10.05
2022-12-03T21:37:46.618Z,10.45
2022-12-03T21:40:13.129Z,10.68
2022-12-03T21:42:39.598Z,9.93
2022-12-03T21:45:06.484Z,9.77
2022-12-03T21:47:37.348Z,10.45
2022-12-03T21:50:05.223Z,7.78
2022-12-03T21:52:32.134Z,8.93
2022-12-03T21:54:58.539Z,8.43
2022-12-03T21:57:25.014Z,8.77
2022-12-03T21:59:51.563Z,8.43
2022-12-03T22:02:18.201Z,8.98
2022-12-03T22:04:48.978Z,9.85
2022-12-03T22:07:15.470Z,7.93
2022-12-03T22:09:41.911Z,8.52
2022-12-03T22:12:08.354Z,8.50
2022-12-03T22:14:34.880Z,8.85
2022-12-03T22:17:01.318Z,7.85
2022-12-03T22:19:27.727Z,7.22
2022-12-03T22:21:54.131Z,7.22
2022-12-03T22:24:20.611Z,6.60
2022-12-03T22:26:47.637Z,7.03
2022-12-03T22:29:14.072Z,7.32
2022-12-03T22:31:40.485Z,7.22
2022-12-03T22:34:06.904Z,7.20
2022-12-03T22:36:33.398Z,7.38
2022-12-03T22:38:59.820Z,6.45
2022-12-03T22:41:26.233Z,6.95
2022-12-03T22:43:52.631Z,6.15
2022-12-03T22:46:19.131Z,5.95
2022-12-03T22:48:46.682Z,6.05
2022-12-03T22:51:15.064Z,5.25
2022-12-03T22:53:41.535Z,5.93
2022-12-03T22:56:08.104Z,5.60
2022-12-03T22:58:34.578Z,5.28
2022-12-03T23:01:03.194Z,6.05
2022-12-03T23:03:30.005Z,5.70
2022-12-03T23:05:56.589Z,6.30
2022-12-03T23:08:23.018Z,4.55
2022-12-03T23:10:52.663Z,5.32
2022-12-03T23:13:19.362Z,5.47
2022-12-03T23:15:49.711Z,5.68
2022-12-03T23:18:16.690Z,5.50
2022-12-03T23:20:44.176Z,4.68
2022-12-03T23:23:10.630Z,6.07
2022-12-03T23:25:37.475Z,5.82
2022-12-03T23:28:04.140Z,4.88
2022-12-03T23:30:30.626Z,5.60
2022-12-03T23:32:57.133Z,5.40
2022-12-03T23:35:23.568Z,6.75
2022-12-03T23:37:50.014Z,6.03
2022-12-03T23:40:16.444Z,5.88
2022-12-03T23:42:42.897Z,5.38
2022-12-03T23:45:09.630Z,5.13
2022-12-03T23:47:36.145Z,5.68
2022-12-03T23:50:03.593Z,5.28
2022-12-03T23:52:30.073Z,5.72
2022-12-03T23:54:56.607Z,5.03
2022-12-03T23:57:23.048Z,6.07
2022-12-03T23:59:49.530Z,5.63
